Time;durP1;ratioP1;P1;durP2;ratioP2;P2;SDS_P1;SDS_P2;PMS_P1;PMS_P2;Temp;Humidity;BMP_temperature;BMP_pressure;BME280_temperature;BME280_humidity;BME280_pressure;Samples;Min_cycle;Max_cycle;Signal;HPM_P1;HPM_P2
2021/12/29 00:01:22;;;;;;;151.48;29.95;;;;;;;8.34;89.32;99149.94;3156058;28;20059;-71
2021/12/29 00:02:55;;;;;;;151.57;29.63;;;;;;;8.32;89.15;99151.75;3158463;28;20052;-71
2021/12/29 00:04:28;;;;;;;128.32;30.80;;;;;;;8.31;89.40;99150.09;3156997;28;20672;-71
2021/12/29 00:06:00;;;;;;;141.15;31.27;;;;;;;8.29;89.55;99149.31;3156918;28;20048;-71
2021/12/29 00:07:32;;;;;;;147.02;32.80;;;;;;;8.26;89.41;99144.25;3157839;28;20071;-71
2021/12/29 00:09:04;;;;;;;189.38;35.20;;;;;;;8.29;89.32;99149.31;3155366;28;20039;-71
2021/12/29 00:10:36;;;;;;;240.77;32.63;;;;;;;8.31;89.12;99155.28;3156911;28;20077;-71
2021/12/29 00:12:09;;;;;;;159.88;27.05;;;;;;;8.27;89.53;99155.47;3157177;28;20125;-71
2021/12/29 00:13:40;;;;;;;125.55;29.73;;;;;;;8.28;89.30;99164.94;3155558;28;20567;-69
2021/12/29 00:15:14;;;;;;;149.43;29.50;;;;;;;8.25;89.21;99158.13;3158034;28;20056;-70
2021/12/29 00:16:46;;;;;;;138.90;33.83;;;;;;;8.28;89.61;99159.75;3155227;28;20101;-71
2021/12/29 00:18:18;;;;;;;147.45;36.42;;;;;;;8.30;89.67;99161.34;3155542;28;20059;-70
2021/12/29 00:19:51;;;;;;;128.38;29.08;;;;;;;8.26;89.69;99162.44;3157593;28;20040;-71
2021/12/29 00:21:23;;;;;;;151.88;30.70;;;;;;;8.25;89.39;99160.72;3155063;28;20082;-71
2021/12/29 00:22:56;;;;;;;139.77;30.95;;;;;;;8.30;89.58;99155.34;3160699;28;20055;-71
2021/12/29 00:24:28;;;;;;;113.72;28.85;;;;;;;8.29;89.53;99151.91;3156541;28;20123;-70
2021/12/29 00:26:00;;;;;;;171.48;27.50;;;;;;;8.29;89.49;99151.06;3154074;28;20048;-71
2021/12/29 00:27:32;;;;;;;115.43;27.80;;;;;;;8.21;89.26;99146.22;3157121;28;20044;-71
2021/12/29 00:29:04;;;;;;;110.85;29.02;;;;;;;8.24;89.63;99151.28;3156713;28;20048;-70
2021/12/29 00:30:36;;;;;;;116.20;26.60;;;;;;;7.89;89.47;99101.00;3153775;28;20082;-71
2021/12/29 00:32:08;;;;;;;136.15;28.60;;;;;;;8.21;89.65;99146.22;3156861;28;20040;-71
2021/12/29 00:33:40;;;;;;;128.07;27.95;;;;;;;8.21;89.62;99154.00;3153679;28;20048;-71
2021/12/29 00:35:14;;;;;;;119.43;25.83;;;;;;;8.21;89.37;99147.06;3156826;28;20101;-71
2021/12/29 00:36:46;;;;;;;100.53;27.73;;;;;;;8.23;89.61;99147.00;3156116;28;20078;-70
2021/12/29 00:38:18;;;;;;;122.38;27.27;;;;;;;8.22;89.35;99147.91;3152527;28;20145;-71
2021/12/29 00:39:50;;;;;;;111.93;28.10;;;;;;;8.22;89.36;99145.31;3156293;28;20480;-71
2021/12/29 00:41:22;;;;;;;116.75;27.77;;;;;;;8.23;89.30;99143.56;3156595;28;20482;-71
2021/12/29 00:42:54;;;;;;;112.95;25.83;;;;;;;8.23;89.27;99146.16;3152661;28;20574;-71
2021/12/29 00:44:26;;;;;;;113.20;26.40;;;;;;;8.21;89.34;99141.88;3156033;28;20044;-71
2021/12/29 00:45:58;;;;;;;98.28;28.67;;;;;;;8.21;89.62;99139.28;3154971;28;20090;-71
2021/12/29 00:47:32;;;;;;;111.50;27.52;;;;;;;8.17;89.33;99129.13;3157438;28;20545;-71
2021/12/29 00:49:04;;;;;;;99.20;26.40;;;;;;;8.22;89.43;99137.53;3156007;28;20105;-71
2021/12/29 00:50:38;;;;;;;102.15;28.65;;;;;;;8.24;89.55;99138.31;3157207;28;20120;-71
2021/12/29 00:52:12;;;;;;;108.40;25.65;;;;;;;8.22;89.21;99134.94;3157408;28;20052;-71
2021/12/29 00:53:43;;;;;;;96.47;25.58;;;;;;;8.19;89.27;99150.63;3157748;28;20238;-71
2021/12/29 00:55:17;;;;;;;138.90;24.90;;;;;;;8.18;89.46;99148.97;3157705;28;20052;-71
2021/12/29 00:56:48;;;;;;;133.43;26.35;;;;;;;8.09;89.42;99139.00;3157271;28;20468;-71
2021/12/29 00:58:20;;;;;;;116.57;23.63;;;;;;;8.15;89.48;99149.09;3157628;28;20059;-71
2021/12/29 00:59:52;;;;;;;128.18;26.77;;;;;;;8.07;89.51;99146.84;3150578;28;20048;-71
2021/12/29 01:01:24;;;;;;;95.22;25.65;;;;;;;8.11;89.90;99153.59;3157568;28;20056;-71
2021/12/29 01:02:56;;;;;;;97.10;31.33;;;;;;;8.13;89.53;99159.56;3157538;28;20044;-71
2021/12/29 01:04:28;;;;;;;124.68;26.55;;;;;;;8.09;89.50;99155.41;3157337;28;20588;-71
2021/12/29 01:06:01;;;;;;;92.78;29.08;;;;;;;8.12;89.80;99164.81;3157755;28;20078;-71
2021/12/29 01:07:33;;;;;;;;;;;;;;;7.94;89.73;99161.28;3157951;28;20052;-71
2021/12/29 01:09:05;;;;;;;85.95;23.00;;;;;;;8.01;90.08;99157.50;3157765;28;19920;-71
2021/12/29 01:10:37;;;;;;;112.97;25.05;;;;;;;8.07;89.77;99156.38;3157697;28;20513;-71
2021/12/29 01:12:10;;;;;;;111.22;24.48;;;;;;;8.08;89.76;99160.69;3150659;28;20101;-70
2021/12/29 01:13:47;;;;;;;69.63;21.77;;;;;;;8.05;89.84;99158.22;3157528;28;20052;-71
2021/12/29 01:15:25;;;;;;;85.22;23.50;;;;;;;8.03;89.99;99160.03;3157272;28;20085;-71
2021/12/29 01:16:57;;;;;;;78.13;22.05;;;;;;;7.95;89.74;99150.81;3156827;28;20054;-70
2021/12/29 01:18:29;;;;;;;83.05;20.67;;;;;;;7.95;89.91;99153.41;3157215;28;20062;-71
2021/12/29 01:20:02;;;;;;;73.47;19.95;;;;;;;7.96;89.62;99152.53;3157136;28;20108;-71
2021/12/29 01:21:37;;;;;;;77.80;19.58;;;;;;;7.92;89.98;99147.53;3157601;28;20176;-71
2021/12/29 01:23:09;;;;;;;81.55;19.65;;;;;;;7.91;89.59;99149.28;3157356;28;20309;-71
2021/12/29 01:24:42;;;;;;;77.13;19.00;;;;;;;7.87;89.39;99134.81;3157288;28;20048;-71
2021/12/29 01:26:14;;;;;;;68.85;19.65;;;;;;;7.89;89.43;99148.50;3157166;28;20090;-71
2021/12/29 01:27:47;;;;;;;67.55;18.40;;;;;;;7.87;89.49;99147.75;3157321;28;20149;-71
2021/12/29 01:29:19;;;;;;;72.90;18.10;;;;;;;7.88;89.57;99146.84;3157269;28;20056;-71
2021/12/29 01:30:51;;;;;;;57.40;17.45;;;;;;;7.84;89.75;99150.50;3157087;28;20501;-71
2021/12/29 01:32:23;;;;;;;69.55;16.63;;;;;;;7.82;89.55;99141.94;3157075;28;20052;-71
2021/12/29 01:33:55;;;;;;;61.85;16.80;;;;;;;7.74;89.36;99134.47;3157398;28;20108;-71
2021/12/29 01:35:27;;;;;;;63.60;18.33;;;;;;;7.81;89.64;99144.56;3157096;28;20413;-71
2021/12/29 01:37:00;;;;;;;54.08;17.45;;;;;;;7.77;89.67;99138.69;3157163;28;20059;-71
2021/12/29 01:38:32;;;;;;;70.68;18.27;;;;;;;7.81;89.59;99145.44;3157068;28;20047;-71
2021/12/29 01:40:07;;;;;;;52.47;16.23;;;;;;;7.79;89.37;99134.28;3157243;28;20153;-71
2021/12/29 01:41:40;;;;;;;61.08;16.83;;;;;;;7.70;89.26;99126.94;3150721;28;20055;-71
2021/12/29 01:43:12;;;;;;;65.45;17.33;;;;;;;7.81;89.74;99139.38;3157093;28;20513;-71
2021/12/29 01:44:44;;;;;;;62.03;16.02;;;;;;;7.81;89.29;99140.25;3157137;28;20056;-71
2021/12/29 01:46:16;;;;;;;57.67;16.10;;;;;;;7.82;89.54;99141.09;3157148;28;20078;-71
2021/12/29 01:47:48;;;;;;;67.68;17.00;;;;;;;7.77;89.46;99146.47;3157098;28;20058;-71
2021/12/29 01:49:20;;;;;;;61.72;16.90;;;;;;;7.79;89.34;99136.03;3157147;28;20055;-71
2021/12/29 01:50:52;;;;;;;52.13;16.58;;;;;;;7.76;89.26;99137.03;3156989;28;20422;-71
2021/12/29 01:52:29;;;;;;;48.95;16.48;;;;;;;7.78;89.39;99145.59;3157136;28;20147;-71
2021/12/29 01:54:14;;;;;;;63.88;17.60;;;;;;;7.76;89.27;99137.03;3157094;28;20048;-71
2021/12/29 01:55:46;;;;;;;58.42;16.17;;;;;;;7.77;89.43;99138.69;3156708;28;20055;-71
2021/12/29 01:57:19;;;;;;;61.00;17.00;;;;;;;7.80;89.50;99140.31;3156794;28;20051;-71
2021/12/29 01:58:51;;;;;;;67.23;16.80;;;;;;;7.78;89.39;99144.72;3157355;28;20128;-71
2021/12/29 02:00:25;;;;;;;59.10;16.77;;;;;;;7.80;89.13;99133.38;3156818;28;20048;-71
2021/12/29 02:01:57;;;;;;;50.17;16.02;;;;;;;7.79;89.25;99136.88;3156871;28;20078;-71
2021/12/29 02:03:29;;;;;;;56.75;15.85;;;;;;;7.78;89.07;99140.41;3157078;28;20052;-71
2021/12/29 02:05:01;;;;;;;61.60;15.50;;;;;;;7.78;89.14;99135.22;3156956;28;20056;-71
2021/12/29 02:06:33;;;;;;;57.30;16.08;;;;;;;7.76;89.15;99126.66;3156709;28;20446;-71
2021/12/29 02:08:06;;;;;;;60.60;15.73;;;;;;;7.74;89.21;99121.53;3157091;28;20048;-71
2021/12/29 02:09:38;;;;;;;;;;;;;;;7.57;89.08;99125.75;3157397;28;20103;-70
2021/12/29 02:11:10;;;;;;;71.10;15.55;;;;;;;7.63;89.36;99116.00;3157292;28;19950;-71
2021/12/29 02:12:42;;;;;;;71.22;15.45;;;;;;;7.64;89.23;99120.25;3150402;28;20048;-71
2021/12/29 02:14:15;;;;;;;53.35;14.50;;;;;;;7.59;89.13;99118.78;3156638;28;20586;-71
2021/12/29 02:15:47;;;;;;;64.72;16.48;;;;;;;7.59;89.20;99116.19;3156883;28;20444;-71
2021/12/29 02:17:19;;;;;;;59.13;15.40;;;;;;;7.61;89.18;99122.16;3156805;28;20056;-71
2021/12/29 02:18:52;;;;;;;56.83;16.33;;;;;;;7.64;89.38;99127.19;3156952;28;20048;-71
2021/12/29 02:20:27;;;;;;;69.55;17.17;;;;;;;7.63;89.09;99128.97;3156828;28;20051;-71
2021/12/29 02:22:06;;;;;;;57.85;16.92;;;;;;;7.48;89.33;99106.28;3156952;28;20106;-71
2021/12/29 02:23:54;;;;;;;60.17;16.35;;;;;;;7.62;89.46;99127.25;3157016;28;20601;-71
2021/12/29 02:25:46;;;;;;;55.92;16.30;;;;;;;7.57;89.31;99120.59;3157064;28;20052;-71
2021/12/29 02:27:18;;;;;;;58.00;16.20;;;;;;;7.59;89.35;99129.13;3156629;28;20139;-71
2021/12/29 02:28:50;;;;;;;55.83;16.02;;;;;;;7.60;89.25;99125.63;3156800;28;20105;-71
2021/12/29 02:30:24;;;;;;;60.83;14.93;;;;;;;7.60;89.50;99125.63;3156986;28;20044;-71
2021/12/29 02:31:56;;;;;;;59.90;15.57;;;;;;;7.58;89.11;99120.53;3156930;28;20052;-71
2021/12/29 02:33:30;;;;;;;55.17;15.35;;;;;;;7.50;89.06;99109.66;3157088;28;20052;-71
2021/12/29 02:35:02;;;;;;;48.67;16.02;;;;;;;7.53;89.10;99128.50;3156553;28;20051;-70
2021/12/29 02:36:42;;;;;;;54.58;16.02;;;;;;;7.53;89.14;99131.09;3156860;28;20099;-71
2021/12/29 02:38:23;;;;;;;48.63;14.25;;;;;;;7.49;89.45;99120.94;3156999;28;20048;-70
2021/12/29 02:39:55;;;;;;;41.45;14.88;;;;;;;7.42;89.31;99120.34;3156470;28;20044;-71
2021/12/29 02:41:30;;;;;;;44.95;13.93;;;;;;;7.25;89.50;99095.19;3156788;28;20555;-71
2021/12/29 02:43:02;;;;;;;43.95;14.57;;;;;;;7.41;89.43;99123.00;3156673;28;20527;-71
2021/12/29 02:44:39;;;;;;;46.38;14.60;;;;;;;7.20;89.73;99093.69;3157032;28;20509;-72
2021/12/29 02:46:14;;;;;;;42.40;14.27;;;;;;;7.40;89.46;99121.34;3156845;28;20523;-71
2021/12/29 02:47:45;;;;;;;42.00;14.10;;;;;;;7.38;89.43;99121.38;3156803;28;20064;-71
2021/12/29 02:49:17;;;;;;;43.28;14.75;;;;;;;7.35;89.57;99121.53;3156595;28;20060;-70
2021/12/29 02:50:54;;;;;;;39.92;14.35;;;;;;;7.38;89.70;99121.38;3157078;28;20044;-72
2021/12/29 02:52:27;;;;;;;43.00;14.35;;;;;;;7.42;89.47;99122.94;3156845;28;20139;-70
2021/12/29 02:54:00;;;;;;;43.38;15.18;;;;;;;7.42;89.71;99109.97;3156534;28;20052;-70
2021/12/29 02:55:32;;;;;;;35.38;13.95;;;;;;;7.41;89.60;99116.06;3156519;28;20067;-70
2021/12/29 02:57:04;;;;;;;42.63;14.45;;;;;;;7.46;89.54;99113.28;3156838;28;20060;-70
2021/12/29 02:58:36;;;;;;;41.80;14.52;;;;;;;7.40;89.20;99108.38;3156610;28;20048;-70
2021/12/29 03:00:13;;;;;;;40.60;15.88;;;;;;;7.44;89.26;99109.91;3150072;28;20101;-70
2021/12/29 03:01:45;;;;;;;44.28;14.77;;;;;;;7.42;89.12;99117.75;3156399;28;20132;-70
2021/12/29 03:03:17;;;;;;;39.40;13.77;;;;;;;7.44;89.26;99121.13;3156797;28;20048;-70
2021/12/29 03:04:49;;;;;;;36.38;12.18;;;;;;;7.39;89.48;99115.28;3156349;28;20052;-70
2021/12/29 03:06:21;;;;;;;39.88;14.70;;;;;;;7.45;89.20;99121.97;3156817;28;20044;-70
2021/12/29 03:07:55;;;;;;;35.72;12.55;;;;;;;7.46;89.31;99123.66;3158258;28;20188;-70
2021/12/29 03:09:26;;;;;;;;;;;;;;;7.28;89.37;99133.06;3159374;28;20076;-70
2021/12/29 03:10:58;;;;;;;35.67;10.35;;;;;;;7.37;89.79;99126.66;3158970;28;19924;-70
2021/12/29 03:12:30;;;;;;;31.30;12.40;;;;;;;7.41;89.49;99121.25;3158909;28;20101;-70
2021/12/29 03:14:02;;;;;;;36.25;11.23;;;;;;;7.43;89.31;99124.63;3159215;28;20105;-70
2021/12/29 03:15:34;;;;;;;29.85;11.02;;;;;;;7.46;89.32;99115.88;3158857;28;20056;-70
2021/12/29 03:17:06;;;;;;;30.92;11.32;;;;;;;7.47;89.64;99121.00;3158140;28;20040;-70
2021/12/29 03:18:39;;;;;;;26.23;10.95;;;;;;;7.50;89.50;99125.19;3158698;28;20056;-70
2021/12/29 03:20:11;;;;;;;32.10;10.57;;;;;;;7.51;89.38;99122.56;3158897;28;20477;-71
2021/12/29 03:21:44;;;;;;;26.17;10.70;;;;;;;7.47;88.80;99113.22;3159036;28;20083;-70
2021/12/29 03:23:18;;;;;;;24.38;10.05;;;;;;;7.43;88.90;99109.09;3158899;28;20052;-70
2021/12/29 03:24:50;;;;;;;27.08;9.52;;;;;;;7.48;88.94;99119.22;3158402;28;20047;-70
2021/12/29 03:26:22;;;;;;;19.70;8.07;;;;;;;7.46;88.80;99119.31;3159101;28;20479;-69
2021/12/29 03:27:58;;;;;;;19.73;9.65;;;;;;;7.41;88.98;99108.31;3158740;28;20098;-70
2021/12/29 03:29:30;;;;;;;22.02;8.70;;;;;;;7.36;88.87;99107.66;3158683;28;20501;-70
2021/12/29 03:31:02;;;;;;;21.27;8.30;;;;;;;7.41;88.68;99118.66;3158703;28;20044;-70
2021/12/29 03:32:41;;;;;;;17.30;8.13;;;;;;;7.41;88.84;99107.47;3158668;28;20146;-70
2021/12/29 03:34:15;;;;;;;20.98;7.80;;;;;;;7.37;89.06;99114.53;3158867;28;20105;-70
2021/12/29 03:35:48;;;;;;;21.75;8.15;;;;;;;7.40;89.12;99119.59;3158519;28;20052;-70
2021/12/29 03:37:20;;;;;;;24.55;9.02;;;;;;;7.38;88.87;99123.97;3158378;28;20067;-70
2021/12/29 03:38:53;;;;;;;20.60;7.72;;;;;;;7.39;88.69;99117.03;3158779;28;20168;-70
2021/12/29 03:40:25;;;;;;;20.98;8.98;;;;;;;7.37;88.66;99122.31;3158382;28;20052;-70
2021/12/29 03:41:58;;;;;;;20.48;8.70;;;;;;;7.17;88.83;99083.47;3158722;28;20121;-70
2021/12/29 03:43:32;;;;;;;16.27;8.07;;;;;;;7.35;88.73;99118.94;3151981;28;20056;-69
2021/12/29 03:45:05;;;;;;;18.50;7.95;;;;;;;7.05;88.63;99077.91;3158659;28;20097;-70
2021/12/29 03:46:39;;;;;;;21.98;9.20;;;;;;;7.33;88.70;99123.31;3158396;28;20048;-70
2021/12/29 03:48:11;;;;;;;19.83;8.05;;;;;;;7.29;88.63;99111.41;3158461;28;20083;-70
2021/12/29 03:49:44;;;;;;;20.02;8.23;;;;;;;7.29;88.84;99108.84;3158382;28;20055;-70
2021/12/29 03:51:15;;;;;;;16.70;8.18;;;;;;;7.27;88.73;99110.63;3158413;28;20722;-70
2021/12/29 03:52:47;;;;;;;20.52;7.72;;;;;;;7.13;88.58;99084.47;3158288;28;20059;-70
2021/12/29 03:54:20;;;;;;;17.10;8.40;;;;;;;7.28;88.74;99109.75;3158530;28;20044;-70
2021/12/29 03:55:52;;;;;;;12.85;7.00;;;;;;;7.26;88.84;99111.56;3158404;28;20052;-70
2021/12/29 03:57:24;;;;;;;18.07;7.97;;;;;;;7.24;88.68;99106.44;3151950;28;20109;-70
2021/12/29 03:58:56;;;;;;;17.40;7.75;;;;;;;7.18;88.82;99098.91;3158028;28;20721;-70
2021/12/29 04:00:28;;;;;;;18.85;8.05;;;;;;;7.20;88.92;99102.28;3158121;28;20052;-70
2021/12/29 04:02:00;;;;;;;21.13;7.88;;;;;;;7.21;88.72;99103.97;3158406;28;20055;-70
2021/12/29 04:03:33;;;;;;;23.25;8.52;;;;;;;7.22;88.91;99104.84;3158308;28;20532;-70
2021/12/29 04:05:05;;;;;;;20.58;8.15;;;;;;;7.22;88.92;99102.25;3158280;28;20086;-71
2021/12/29 04:06:36;;;;;;;19.02;8.10;;;;;;;7.19;88.73;99099.78;3158172;28;20048;-70
2021/12/29 04:08:07;;;;;;;13.65;7.13;;;;;;;7.10;88.54;99076.84;3158599;28;20059;-70
2021/12/29 04:09:41;;;;;;;17.95;8.45;;;;;;;7.18;88.79;99098.09;3158083;28;20044;-70
2021/12/29 04:11:13;;;;;;;17.00;7.55;;;;;;;7.15;88.96;99100.81;3158173;28;20093;-69
2021/12/29 04:12:45;;;;;;;17.98;7.88;;;;;;;7.18;88.92;99108.44;3158052;28;20390;-70
2021/12/29 04:14:18;;;;;;;16.50;7.43;;;;;;;7.14;88.84;99102.56;3158108;28;20067;-70
2021/12/29 04:15:50;;;;;;;;;;;;;;;6.96;89.06;99109.34;3158486;28;20405;-70
2021/12/29 04:17:28;;;;;;;17.52;7.07;;;;;;;7.04;89.41;99102.13;3158158;28;20010;-70
2021/12/29 04:19:17;;;;;;;17.98;6.63;;;;;;;7.09;89.46;99108.84;3157325;28;20132;-70
2021/12/29 04:20:57;;;;;;;15.75;7.10;;;;;;;7.05;89.48;99098.59;3157917;28;20381;-71
2021/12/29 04:22:29;;;;;;;16.67;7.28;;;;;;;7.09;89.19;99107.06;3158201;28;20047;-70
2021/12/29 04:24:01;;;;;;;18.38;7.20;;;;;;;7.09;88.98;99098.47;3158180;28;20105;-70
2021/12/29 04:25:36;;;;;;;20.08;7.40;;;;;;;7.11;88.92;99109.63;3158037;28;20105;-71
2021/12/29 04:27:08;;;;;;;22.08;8.20;;;;;;;7.05;89.25;99103.78;3157784;28;20048;-70
2021/12/29 04:28:40;;;;;;;17.98;7.60;;;;;;;7.07;89.11;99104.56;3157980;28;20044;-71
2021/12/29 04:30:12;;;;;;;15.85;7.50;;;;;;;7.09;89.19;99103.66;3157855;28;20048;-71
2021/12/29 04:31:44;;;;;;;13.00;6.80;;;;;;;7.11;89.19;99107.88;3157673;28;20136;-71
2021/12/29 04:33:17;;;;;;;16.80;7.32;;;;;;;6.99;88.88;99085.09;3157999;28;20059;-71
2021/12/29 04:34:49;;;;;;;16.50;7.18;;;;;;;7.11;89.03;99109.63;3157460;28;20120;-71
2021/12/29 04:36:24;;;;;;;17.35;8.00;;;;;;;7.11;88.99;99107.88;3157542;28;20052;-71
2021/12/29 04:37:56;;;;;;;18.67;7.43;;;;;;;7.14;89.03;99104.31;3157708;28;20059;-71
2021/12/29 04:39:28;;;;;;;15.73;6.88;;;;;;;7.08;89.17;99105.41;3158065;28;20048;-71
2021/12/29 04:41:01;;;;;;;33.15;13.88;;;;;;;7.14;88.80;99096.53;3157807;28;20428;-71
2021/12/29 04:42:32;;;;;;;51.53;19.13;;;;;;;7.11;88.95;99096.69;3157676;28;20056;-71
2021/12/29 04:44:05;;;;;;;16.00;8.25;;;;;;;7.10;88.87;99088.06;3157866;28;20084;-71
2021/12/29 04:45:36;;;;;;;14.23;7.65;;;;;;;7.09;89.00;99088.97;3157923;28;20048;-71
2021/12/29 04:47:08;;;;;;;12.70;7.00;;;;;;;7.02;88.85;99083.19;3157841;28;20630;-71
2021/12/29 04:48:47;;;;;;;14.20;6.57;;;;;;;7.07;88.97;99086.44;3157315;28;20105;-71
2021/12/29 04:50:25;;;;;;;12.45;6.53;;;;;;;7.07;89.03;99083.84;3157624;28;20083;-70
2021/12/29 04:52:03;;;;;;;15.48;6.07;;;;;;;7.03;89.14;99076.28;3157787;28;20509;-70
2021/12/29 04:53:35;;;;;;;12.25;6.05;;;;;;;6.92;89.01;99061.22;3157811;28;20058;-70
2021/12/29 04:55:08;;;;;;;12.27;6.53;;;;;;;7.04;89.01;99077.97;3157647;28;20056;-70
2021/12/29 04:56:41;;;;;;;;;;;;;;;6.86;88.92;99076.97;3157856;28;20673;-69
2021/12/29 04:58:13;;;;;;;11.90;5.75;;;;;;;6.87;89.25;99068.31;3157799;28;19927;-70
2021/12/29 04:59:45;;;;;;;12.45;5.20;;;;;;;6.91;89.24;99077.63;3157617;28;20071;-69
2021/12/29 05:01:17;;;;;;;11.40;5.57;;;;;;;6.94;88.97;99082.69;3157321;28;20527;-70
2021/12/29 05:02:49;;;;;;;17.45;6.45;;;;;;;6.96;89.19;99077.44;3157195;28;20052;-70
2021/12/29 05:04:29;;;;;;;12.30;6.15;;;;;;;6.94;89.24;99072.31;3157553;28;20052;-70
2021/12/29 05:09:37;;;;;;;13.02;5.85;;;;;;;6.84;89.19;99071.88;3157447;28;20485;-70
2021/12/29 05:11:10;;;;;;;10.75;5.45;;;;;;;6.92;88.85;99068.09;3157155;28;20048;-70
2021/12/29 05:12:44;;;;;;;10.32;5.45;;;;;;;6.87;88.82;99065.72;3151337;28;20150;-70
2021/12/29 05:14:15;;;;;;;10.35;5.50;;;;;;;6.87;89.12;99078.66;3157438;28;20141;-70
2021/12/29 05:15:47;;;;;;;13.05;5.55;;;;;;;6.82;89.08;99060.72;3157451;28;20459;-70
2021/12/29 05:17:19;;;;;;;9.80;5.47;;;;;;;6.89;88.96;99065.66;3157082;28;20453;-70
2021/12/29 05:18:51;;;;;;;9.02;5.20;;;;;;;6.92;88.82;99071.56;3157395;28;20487;-70
2021/12/29 05:20:23;;;;;;;8.52;5.55;;;;;;;6.88;89.03;99064.81;3157493;28;20101;-70
2021/12/29 05:21:55;;;;;;;11.88;5.45;;;;;;;6.89;88.77;99076.00;3157154;28;20101;-70
2021/12/29 05:23:27;;;;;;;10.35;5.20;;;;;;;6.86;88.85;99069.22;3157072;28;20105;-70
2021/12/29 05:24:59;;;;;;;13.20;5.43;;;;;;;6.84;88.76;99065.84;3157280;28;20585;-70
2021/12/29 05:26:31;;;;;;;10.07;4.90;;;;;;;6.86;88.74;99071.78;3157305;28;20048;-69
2021/12/29 05:28:04;;;;;;;11.30;5.40;;;;;;;6.89;88.94;99070.81;3157343;28;20109;-70
2021/12/29 05:29:36;;;;;;;12.88;6.60;;;;;;;6.87;88.92;99070.06;3150493;28;20040;-70
2021/12/29 05:31:08;;;;;;;9.25;5.60;;;;;;;6.81;88.84;99050.47;3157179;28;20051;-70
2021/12/29 05:32:40;;;;;;;13.93;7.97;;;;;;;6.87;88.87;99067.47;3157254;28;20097;-70
2021/12/29 05:34:12;;;;;;;11.45;6.43;;;;;;;6.81;88.85;99056.47;3157175;28;20048;-70
2021/12/29 05:35:45;;;;;;;11.93;6.85;;;;;;;6.84;88.56;99050.34;3157497;28;20048;-70
2021/12/29 05:37:17;;;;;;;13.60;6.75;;;;;;;6.88;88.74;99056.22;3157540;28;20056;-70
2021/12/29 05:38:49;;;;;;;14.10;7.07;;;;;;;6.88;88.60;99054.47;3156993;28;20109;-70
2021/12/29 05:40:20;;;;;;;15.25;7.55;;;;;;;6.89;88.74;99053.56;3157390;28;20105;-70
2021/12/29 05:41:52;;;;;;;15.93;7.75;;;;;;;6.86;88.81;99039.91;3157314;28;20105;-70
2021/12/29 05:43:26;;;;;;;13.75;8.02;;;;;;;6.93;88.49;99041.34;3157098;28;20052;-70
2021/12/29 05:44:57;;;;;;;;;;;;;;;6.76;88.63;99040.28;3157508;28;20048;-70
2021/12/29 05:46:29;;;;;;;11.73;6.97;;;;;;;6.80;88.86;99049.63;3156964;28;20380;-70
2021/12/29 05:48:01;;;;;;;13.65;7.38;;;;;;;6.82;88.69;99044.38;3157377;28;20048;-71
2021/12/29 05:49:33;;;;;;;13.00;7.93;;;;;;;6.84;88.68;99050.34;3157127;28;20052;-71
2021/12/29 05:51:06;;;;;;;11.77;6.97;;;;;;;6.84;88.54;99047.75;3157108;28;20276;-70
2021/12/29 05:52:38;;;;;;;15.02;7.50;;;;;;;6.77;88.69;99035.94;3156998;28;20048;-70
2021/12/29 05:54:10;;;;;;;14.73;7.55;;;;;;;6.84;88.64;99040.81;3157201;28;20052;-70
2021/12/29 05:55:42;;;;;;;11.07;6.80;;;;;;;6.88;88.70;99048.44;3157119;28;20047;-71
2021/12/29 05:57:14;;;;;;;14.57;8.00;;;;;;;6.87;88.60;99045.03;3157093;28;20051;-70
2021/12/29 05:58:47;;;;;;;15.45;7.85;;;;;;;6.89;88.61;99045.81;3156736;28;20055;-70
2021/12/29 06:00:21;;;;;;;14.38;6.93;;;;;;;6.89;88.36;99047.53;3157140;28;20144;-70
2021/12/29 06:01:53;;;;;;;13.80;6.75;;;;;;;6.80;88.17;99035.81;3156816;28;20504;-70
2021/12/29 06:03:25;;;;;;;12.85;7.15;;;;;;;6.83;88.43;99051.22;3156895;28;20048;-70
2021/12/29 06:04:57;;;;;;;17.20;8.15;;;;;;;6.85;88.44;99054.59;3157073;28;20077;-70
2021/12/29 06:06:29;;;;;;;12.23;6.88;;;;;;;6.80;88.44;99061.69;3156956;28;20126;-70
2021/12/29 06:08:01;;;;;;;15.30;7.95;;;;;;;6.80;88.28;99059.97;3156965;28;20481;-70
2021/12/29 06:09:32;;;;;;;13.95;7.47;;;;;;;6.81;88.25;99058.22;3156918;28;20052;-70
2021/12/29 06:11:04;;;;;;;12.05;6.70;;;;;;;6.76;88.19;99062.75;3157111;28;20135;-70
2021/12/29 06:12:36;;;;;;;13.45;7.55;;;;;;;6.79;88.48;99065.19;3156980;28;20051;-70
2021/12/29 06:14:10;;;;;;;16.55;7.95;;;;;;;6.81;88.21;99063.41;3156767;28;20453;-70
2021/12/29 06:15:42;;;;;;;13.40;8.02;;;;;;;6.79;88.60;99063.44;3150777;28;20067;-70
2021/12/29 06:17:14;;;;;;;14.93;8.80;;;;;;;6.82;88.50;99063.31;3156989;28;20118;-69
2021/12/29 06:18:46;;;;;;;15.48;8.45;;;;;;;6.85;88.41;99064.94;3156798;28;20056;-70
2021/12/29 06:20:18;;;;;;;15.07;8.02;;;;;;;6.82;88.52;99067.66;3156752;28;20513;-70
2021/12/29 06:21:50;;;;;;;18.17;8.02;;;;;;;6.86;88.33;99061.44;3156558;28;20105;-70
2021/12/29 06:23:22;;;;;;;18.33;8.88;;;;;;;6.83;88.31;99056.41;3157152;28;20056;-70
2021/12/29 06:24:55;;;;;;;18.48;9.15;;;;;;;6.87;88.12;99060.56;3156902;28;20060;-70
2021/12/29 06:26:26;;;;;;;16.40;9.32;;;;;;;6.87;88.32;99063.16;3156977;28;20067;-70
2021/12/29 06:27:58;;;;;;;18.30;8.77;;;;;;;6.89;88.03;99065.66;3156595;28;20048;-70
2021/12/29 06:29:31;;;;;;;20.15;9.38;;;;;;;6.90;88.21;99072.53;3156802;28;20117;-69
2021/12/29 06:31:03;;;;;;;17.30;9.02;;;;;;;6.88;88.24;99070.00;3156760;28;20113;-70
2021/12/29 06:32:35;;;;;;;14.50;8.35;;;;;;;6.87;88.09;99073.50;3156744;28;20403;-70
2021/12/29 06:34:07;;;;;;;18.42;9.38;;;;;;;6.88;88.35;99069.16;3156633;28;20048;-69
2021/12/29 06:35:39;;;;;;;15.32;8.75;;;;;;;6.88;88.23;99075.16;3156779;28;20048;-70
2021/12/29 06:37:12;;;;;;;17.40;8.52;;;;;;;6.86;88.09;99076.97;3156851;28;20109;-70
2021/12/29 06:38:44;;;;;;;21.92;10.82;;;;;;;6.88;88.07;99075.16;3156804;28;20093;-70
2021/12/29 06:40:17;;;;;;;21.17;9.10;;;;;;;6.90;88.35;99081.13;3157175;28;20048;-70
2021/12/29 06:41:47;;;;;;;18.15;9.30;;;;;;;6.92;88.44;99081.91;3155862;28;20048;-70
2021/12/29 06:43:19;;;;;;;19.42;8.48;;;;;;;6.93;88.41;99083.59;3159284;28;20143;-72
2021/12/29 06:44:53;;;;;;;17.35;9.43;;;;;;;6.91;87.97;99077.63;3159045;28;20056;-70
2021/12/29 06:46:25;;;;;;;20.70;8.27;;;;;;;6.93;88.27;99088.78;3159425;28;20138;-70
2021/12/29 06:47:57;;;;;;;19.13;9.10;;;;;;;6.94;88.09;99087.03;3159031;28;20082;-71
2021/12/29 06:49:29;;;;;;;18.90;10.02;;;;;;;6.94;88.20;99093.03;3159048;28;20064;-71
2021/12/29 06:51:00;;;;;;;19.85;11.07;;;;;;;6.96;87.96;99099.00;3159529;28;20052;-71
2021/12/29 06:52:33;;;;;;;21.23;10.80;;;;;;;6.95;88.19;99092.16;3159564;28;20051;-71
2021/12/29 06:54:05;;;;;;;17.40;9.57;;;;;;;6.88;88.08;99085.53;3158981;28;20444;-72
2021/12/29 06:55:39;;;;;;;20.80;10.02;;;;;;;6.86;87.97;99087.31;3159180;28;20055;-71
2021/12/29 06:57:11;;;;;;;19.70;9.60;;;;;;;6.90;87.86;99091.47;3159224;28;20051;-70
2021/12/29 06:58:42;;;;;;;24.08;10.82;;;;;;;6.88;87.83;99093.28;3159273;28;20044;-71
2021/12/29 07:00:16;;;;;;;25.83;11.10;;;;;;;6.77;87.95;99069.59;3159096;28;20517;-70
2021/12/29 07:01:49;;;;;;;24.73;11.30;;;;;;;6.91;87.80;99102.69;3158761;28;20052;-71
2021/12/29 07:03:20;;;;;;;35.42;13.82;;;;;;;6.91;87.89;99105.25;3158960;28;20105;-71
2021/12/29 07:04:52;;;;;;;37.65;14.85;;;;;;;6.90;88.03;99098.41;3159259;28;20052;-71
2021/12/29 07:06:24;;;;;;;30.38;12.05;;;;;;;6.93;88.06;99106.06;3159045;28;20056;-71
2021/12/29 07:07:57;;;;;;;36.65;16.38;;;;;;;6.91;87.88;99100.91;3159033;28;20048;-72
2021/12/29 07:09:29;;;;;;;39.10;16.42;;;;;;;6.94;87.96;99108.56;3158839;28;20047;-71
2021/12/29 07:11:01;;;;;;;35.75;16.00;;;;;;;6.78;87.69;99079.06;3159157;28;20051;-71
2021/12/29 07:12:33;;;;;;;37.20;16.92;;;;;;;6.92;87.75;99102.63;3158863;28;20047;-71
2021/12/29 07:14:05;;;;;;;33.72;14.27;;;;;;;6.89;87.62;99105.34;3158612;28;20055;-71
2021/12/29 07:15:39;;;;;;;32.47;14.57;;;;;;;6.87;87.77;99111.47;3158961;28;20517;-72
2021/12/29 07:17:11;;;;;;;34.72;14.00;;;;;;;6.81;87.86;99104.81;3158713;28;20102;-71
2021/12/29 07:18:43;;;;;;;39.90;15.82;;;;;;;6.85;87.89;99106.34;3158533;28;20125;-71